createdAt,value
2023-02-12T00:00:34.956Z,21.02
2023-02-12T00:03:02.480Z,22.08
2023-02-12T00:05:29.952Z,21.60
2023-02-12T00:07:57.478Z,22.63
2023-02-12T00:10:25.296Z,22.27
2023-02-12T00:12:54.774Z,23.35
2023-02-12T00:15:22.442Z,22.67
2023-02-12T00:17:49.882Z,22.88
2023-02-12T00:20:17.346Z,22.88
2023-02-12T00:22:44.815Z,22.48
2023-02-12T00:25:13.989Z,23.42
2023-02-12T00:27:41.471Z,24.58
2023-02-12T00:30:08.981Z,24.30
2023-02-12T00:32:37.391Z,23.83
2023-02-12T00:35:04.909Z,23.63
2023-02-12T00:37:32.380Z,22.52
2023-02-12T00:39:59.885Z,24.35
2023-02-12T00:42:27.325Z,23.90
2023-02-12T00:44:54.850Z,23.88
2023-02-12T00:47:22.337Z,24.02
2023-02-12T00:49:50.723Z,24.88
2023-02-12T00:52:18.337Z,23.52
2023-02-12T00:54:45.723Z,25.02
2023-02-12T00:57:13.173Z,23.83
2023-02-12T00:59:42.282Z,23.95
2023-02-12T01:02:09.792Z,24.17
2023-02-12T01:04:37.265Z,24.13
2023-02-12T01:07:04.745Z,25.15
2023-02-12T01:09:32.163Z,24.63
2023-02-12T01:12:00.979Z,24.35
2023-02-12T01:14:28.561Z,22.85
2023-02-12T01:16:56.083Z,23.60
2023-02-12T01:19:23.625Z,23.35
2023-02-12T01:21:51.192Z,23.73
2023-02-12T01:24:18.562Z,23.77
2023-02-12T01:26:46.092Z,25.08
2023-02-12T01:29:13.582Z,23.00
2023-02-12T01:31:42.864Z,22.85
2023-02-12T01:34:11.438Z,24.40
2023-02-12T01:36:39.717Z,24.08
2023-02-12T01:39:07.279Z,25.27
2023-02-12T01:41:36.679Z,23.00
2023-02-12T01:44:07.213Z,24.35
2023-02-12T01:46:34.777Z,22.90
2023-02-12T01:49:03.261Z,25.08
2023-02-12T01:51:30.833Z,24.80
2023-02-12T01:54:00.521Z,25.38
2023-02-12T01:56:28.155Z,23.73
2023-02-12T01:58:57.827Z,24.75
2023-02-12T02:01:27.420Z,24.20
2023-02-12T02:04:02.314Z,24.77
2023-02-12T02:06:34.827Z,23.90
2023-02-12T02:09:02.634Z,24.67
2023-02-12T02:11:48.751Z,25.77
2023-02-12T02:14:34.518Z,24.17
2023-02-12T02:17:14.942Z,24.85
2023-02-12T02:19:48.477Z,25.38
2023-02-12T02:22:21.693Z,25.10
2023-02-12T02:24:49.128Z,25.02
2023-02-12T02:27:25.636Z,25.08
2023-02-12T02:30:11.291Z,26.45
2023-02-12T02:32:57.496Z,26.67
2023-02-12T02:35:30.886Z,24.85
2023-02-12T02:37:58.342Z,26.35
2023-02-12T02:40:27.893Z,26.52
2023-02-12T02:42:57.720Z,27.05
2023-02-12T02:45:28.037Z,26.00
2023-02-12T02:48:07.805Z,26.70
2023-02-12T02:50:36.526Z,27.13
2023-02-12T02:53:06.343Z,26.23
2023-02-12T02:55:37.827Z,25.35
2023-02-12T02:58:16.068Z,25.80
2023-02-12T03:00:47.430Z,26.58
2023-02-12T03:03:23.113Z,26.70
2023-02-12T03:05:54.011Z,26.70
2023-02-12T03:08:25.255Z,26.30
2023-02-12T03:10:55.865Z,26.10
2023-02-12T03:13:52.801Z,26.73
2023-02-12T03:16:28.342Z,27.80
2023-02-12T03:18:57.942Z,27.75
2023-02-12T03:21:37.581Z,26.08
2023-02-12T03:24:27.587Z,28.15
2023-02-12T03:27:01.242Z,25.58
2023-02-12T03:29:28.742Z,27.52
2023-02-12T03:32:05.140Z,26.20
2023-02-12T03:34:42.898Z,27.05
2023-02-12T03:37:13.389Z,27.90
2023-02-12T03:39:56.091Z,27.45
2023-02-12T03:42:23.697Z,26.48
2023-02-12T03:44:55.672Z,26.27
2023-02-12T03:47:38.755Z,26.80
2023-02-12T03:50:13.625Z,25.83
2023-02-12T03:52:41.407Z,28.27
2023-02-12T03:55:09.085Z,26.85
2023-02-12T03:57:41.486Z,26.45
2023-02-12T04:00:10.804Z,26.05
2023-02-12T04:02:47.929Z,25.83
2023-02-12T04:05:20.356Z,26.08
2023-02-12T04:07:47.950Z,27.40
2023-02-12T04:10:15.666Z,28.15
2023-02-12T04:12:46.056Z,28.00
2023-02-12T04:15:19.686Z,27.58
2023-02-12T04:17:47.272Z,26.95
2023-02-12T04:20:27.915Z,27.65
2023-02-12T04:23:14.170Z,27.45
2023-02-12T04:25:44.455Z,27.25
2023-02-12T04:28:25.724Z,27.05
2023-02-12T04:30:53.329Z,27.67
2023-02-12T04:33:22.820Z,28.42
2023-02-12T04:35:50.194Z,26.70
2023-02-12T04:38:17.621Z,26.65
2023-02-12T04:40:45.145Z,27.50
2023-02-12T04:43:12.660Z,27.38
2023-02-12T04:45:40.137Z,26.88
2023-02-12T04:48:07.718Z,27.63
2023-02-12T04:50:42.444Z,27.23
2023-02-12T04:53:10.818Z,28.63
2023-02-12T04:55:38.277Z,27.30
2023-02-12T04:58:06.397Z,26.60
2023-02-12T05:00:33.982Z,28.88
2023-02-12T05:03:01.533Z,28.77
2023-02-12T05:05:28.986Z,28.30
2023-02-12T05:07:56.440Z,27.80
2023-02-12T05:10:23.790Z,26.50
2023-02-12T05:12:54.514Z,26.15
2023-02-12T05:15:22.485Z,25.98
2023-02-12T05:17:49.882Z,27.40
2023-02-12T05:20:17.495Z,29.27
2023-02-12T05:22:44.882Z,29.15
2023-02-12T05:25:12.427Z,31.00
2023-02-12T05:27:39.854Z,31.15
2023-02-12T05:30:09.540Z,30.77
2023-02-12T05:32:36.973Z,28.33
2023-02-12T05:35:04.562Z,29.70
2023-02-12T05:37:32.156Z,29.65
2023-02-12T05:39:59.709Z,29.77
2023-02-12T05:42:27.097Z,29.48
2023-02-12T05:44:54.574Z,28.27
2023-02-12T05:47:22.098Z,29.27
2023-02-12T05:49:49.547Z,27.80
2023-02-12T05:52:16.987Z,28.67
2023-02-12T05:54:44.514Z,26.48
2023-02-12T05:57:15.331Z,26.40
2023-02-12T05:59:42.944Z,29.48
2023-02-12T06:02:19.001Z,30.27
2023-02-12T06:04:48.593Z,29.63
2023-02-12T06:07:16.503Z,29.95
2023-02-12T06:09:43.917Z,27.88
2023-02-12T06:12:12.246Z,30.90
2023-02-12T06:14:41.830Z,28.52
2023-02-12T06:17:12.529Z,28.25
2023-02-12T06:19:41.031Z,27.48
2023-02-12T06:22:11.086Z,28.77
2023-02-12T06:24:38.897Z,28.45
2023-02-12T06:27:06.952Z,27.92
2023-02-12T06:29:34.405Z,27.23
2023-02-12T06:32:01.996Z,26.95
2023-02-12T06:34:29.479Z,28.92
2023-02-12T06:36:57.024Z,28.92
2023-02-12T06:39:24.597Z,28.63
2023-02-12T06:41:52.752Z,28.40
2023-02-12T06:44:20.324Z,28.67
2023-02-12T06:46:49.585Z,29.38
2023-02-12T06:49:17.062Z,28.20
2023-02-12T06:51:44.540Z,30.45
2023-02-12T06:54:16.122Z,32.17
2023-02-12T06:56:43.810Z,33.33
2023-02-12T06:59:14.445Z,31.05
2023-02-12T07:01:41.906Z,30.98
2023-02-12T07:04:09.532Z,30.17
2023-02-12T07:06:37.240Z,29.05
2023-02-12T07:09:05.449Z,29.67
2023-02-12T07:11:36.849Z,28.70
2023-02-12T07:14:05.558Z,31.02
2023-02-12T07:16:33.018Z,29.58
2023-02-12T07:19:00.583Z,29.63
2023-02-12T07:21:28.020Z,30.92
2023-02-12T07:23:55.782Z,33.10
2023-02-12T07:26:23.250Z,32.55
2023-02-12T07:28:51.358Z,36.15
2023-02-12T07:31:20.596Z,37.05
2023-02-12T07:33:48.867Z,36.50
2023-02-12T07:36:18.052Z,37.42
2023-02-12T07:38:45.805Z,38.55
2023-02-12T07:41:14.517Z,36.50
2023-02-12T07:43:43.400Z,38.35
2023-02-12T07:46:12.281Z,35.13
2023-02-12T07:48:39.817Z,33.60
2023-02-12T07:51:11.471Z,33.05
2023-02-12T07:53:39.626Z,34.72
2023-02-12T07:56:07.028Z,35.90
2023-02-12T07:58:34.719Z,36.55
2023-02-12T08:01:02.292Z,37.65
2023-02-12T08:03:29.898Z,37.10
2023-02-12T08:05:57.602Z,38.22
2023-02-12T08:08:25.315Z,38.05
2023-02-12T08:10:52.740Z,40.22
2023-02-12T08:13:20.168Z,41.85
2023-02-12T08:15:47.632Z,39.30
2023-02-12T08:18:15.018Z,37.75
2023-02-12T08:20:42.453Z,37.53
2023-02-12T08:23:09.812Z,36.60
2023-02-12T08:25:37.524Z,37.58
2023-02-12T08:28:05.046Z,38.22
2023-02-12T08:30:32.413Z,36.90
2023-02-12T08:32:59.833Z,37.70
2023-02-12T08:35:27.870Z,43.13
2023-02-12T08:37:55.652Z,41.25
2023-02-12T08:40:23.412Z,41.53
2023-02-12T08:42:50.938Z,44.58
2023-02-12T08:45:18.325Z,42.88
2023-02-12T08:47:45.974Z,41.13
2023-02-12T08:50:13.450Z,49.40
2023-02-12T08:52:43.035Z,44.45
2023-02-12T08:55:11.148Z,42.25
2023-02-12T08:57:38.580Z,43.67
2023-02-12T09:00:06.372Z,43.50
2023-02-12T09:02:33.801Z,44.20
2023-02-12T09:05:01.285Z,45.30
2023-02-12T09:07:28.697Z,42.38
2023-02-12T09:09:56.153Z,41.00
2023-02-12T09:12:23.687Z,36.75
2023-02-12T09:14:51.910Z,39.38
2023-02-12T09:17:19.433Z,37.88
2023-02-12T09:19:46.903Z,37.47
2023-02-12T09:22:14.353Z,36.45
2023-02-12T09:24:41.806Z,39.45
2023-02-12T09:27:09.249Z,40.00
2023-02-12T09:29:36.693Z,39.70
2023-02-12T09:32:06.663Z,39.83
2023-02-12T09:34:35.822Z,38.28
2023-02-12T09:37:03.284Z,36.30
2023-02-12T09:39:30.867Z,34.95
2023-02-12T09:41:58.276Z,34.83
2023-02-12T09:44:34.669Z,32.40
2023-02-12T09:47:08.172Z,33.92
2023-02-12T09:49:46.731Z,30.88
2023-02-12T09:52:17.392Z,30.10
2023-02-12T09:54:45.005Z,31.10
2023-02-12T09:57:38.707Z,32.20
2023-02-12T10:00:08.225Z,36.47
2023-02-12T10:02:36.745Z,31.67
2023-02-12T10:05:05.157Z,29.55
2023-02-12T10:07:41.672Z,30.27
2023-02-12T10:10:27.981Z,28.10
2023-02-12T10:12:55.430Z,30.67
2023-02-12T10:15:41.377Z,31.30
2023-02-12T10:18:08.793Z,27.58
2023-02-12T10:20:54.982Z,28.20
2023-02-12T10:23:22.644Z,25.98
2023-02-12T10:25:57.593Z,26.58
2023-02-12T10:28:36.086Z,27.65
2023-02-12T10:31:05.383Z,25.42
2023-02-12T10:33:36.496Z,25.90
2023-02-12T10:36:17.251Z,25.55
2023-02-12T10:38:47.282Z,30.70
2023-02-12T10:41:16.615Z,27.02
2023-02-12T10:43:44.221Z,25.48
2023-02-12T10:46:18.355Z,23.73
2023-02-12T10:48:47.144Z,25.33
2023-02-12T10:51:17.687Z,27.52
2023-02-12T10:53:46.490Z,24.08
2023-02-12T10:56:13.857Z,25.55
2023-02-12T10:59:00.639Z,23.92
2023-02-12T11:01:32.809Z,25.10
2023-02-12T11:04:00.961Z,26.52
2023-02-12T11:06:29.666Z,24.83
2023-02-12T11:08:57.818Z,24.38
2023-02-12T11:11:31.181Z,31.92
2023-02-12T11:14:01.504Z,27.25
2023-02-12T11:16:30.734Z,28.10
2023-02-12T11:18:59.292Z,27.77
2023-02-12T11:21:26.861Z,30.08
2023-02-12T11:23:54.313Z,28.27
2023-02-12T11:26:21.729Z,26.23
2023-02-12T11:28:55.245Z,26.95
2023-02-12T11:31:24.538Z,27.73
2023-02-12T11:34:10.637Z,27.80
2023-02-12T11:36:41.253Z,28.80
2023-02-12T11:39:18.395Z,29.17
2023-02-12T11:41:45.983Z,27.60
2023-02-12T11:44:27.467Z,25.52
2023-02-12T11:46:57.631Z,25.60
2023-02-12T11:49:37.981Z,24.33
2023-02-12T11:52:05.806Z,24.08
2023-02-12T11:54:37.185Z,23.73
2023-02-12T11:57:04.732Z,22.58
2023-02-12T11:59:40.930Z,23.08
2023-02-12T12:02:27.573Z,24.90
2023-02-12T12:04:57.046Z,28.63
2023-02-12T12:07:31.203Z,25.50
2023-02-12T12:09:58.638Z,24.45
2023-02-12T12:12:46.399Z,38.92
2023-02-12T12:15:32.443Z,54.63
2023-02-12T12:18:27.548Z,26.10
2023-02-12T12:21:03.593Z,23.27
2023-02-12T12:23:34.160Z,25.23
2023-02-12T12:26:11.494Z,26.92
2023-02-12T12:28:45.574Z,28.25
2023-02-12T12:31:15.893Z,28.67
2023-02-12T12:33:46.181Z,23.85
2023-02-12T12:36:26.583Z,24.23
2023-02-12T12:38:57.064Z,22.88
2023-02-12T12:41:24.518Z,21.55
2023-02-12T12:44:01.041Z,22.67
2023-02-12T12:46:31.608Z,24.30
2023-02-12T12:49:18.033Z,22.77
2023-02-12T12:51:48.680Z,21.52
2023-02-12T12:54:28.370Z,22.58
2023-02-12T12:56:58.848Z,23.23
2023-02-12T12:59:46.360Z,25.67
2023-02-12T13:02:32.492Z,39.33
2023-02-12T13:05:18.666Z,35.08
2023-02-12T13:07:46.193Z,22.88
2023-02-12T13:10:16.482Z,23.20
2023-02-12T13:12:47.019Z,23.52
2023-02-12T13:15:23.578Z,21.52
2023-02-12T13:17:58.503Z,20.80
2023-02-12T13:20:44.988Z,21.42
2023-02-12T13:23:17.068Z,19.25
2023-02-12T13:25:47.572Z,20.50
2023-02-12T13:28:17.953Z,21.00
2023-02-12T13:30:50.790Z,20.92
2023-02-12T13:33:26.706Z,18.92
2023-02-12T13:35:57.451Z,19.77
2023-02-12T13:38:40.227Z,18.60
2023-02-12T13:41:09.037Z,18.58
2023-02-12T13:43:39.513Z,19.45
2023-02-12T13:46:16.049Z,19.05
2023-02-12T13:48:49.609Z,19.15
2023-02-12T13:51:35.929Z,19.58
2023-02-12T13:54:46.643Z,19.60
2023-02-12T13:57:16.099Z,27.75
2023-02-12T13:59:46.390Z,23.73
2023-02-12T14:02:13.894Z,22.90
2023-02-12T14:04:44.178Z,22.60
2023-02-12T14:07:13.207Z,21.92
2023-02-12T14:09:52.861Z,22.08
2023-02-12T14:12:26.444Z,22.67
2023-02-12T14:14:56.245Z,21.33
2023-02-12T14:17:30.262Z,21.77
2023-02-12T14:19:57.892Z,21.27
2023-02-12T14:22:25.340Z,23.02
2023-02-12T14:24:53.738Z,20.17
2023-02-12T14:27:21.267Z,22.27
2023-02-12T14:30:21.139Z,21.23
2023-02-12T14:32:55.682Z,20.40
2023-02-12T14:35:37.870Z,23.58
2023-02-12T14:38:20.394Z,21.38
2023-02-12T14:40:48.134Z,21.52
2023-02-12T14:43:30.670Z,22.30
2023-02-12T14:46:16.869Z,20.45
2023-02-12T14:48:58.186Z,20.20
2023-02-12T14:51:34.388Z,20.25
2023-02-12T14:54:02.224Z,21.52
2023-02-12T14:56:29.707Z,21.25
2023-02-12T14:58:58.072Z,20.85
2023-02-12T15:01:35.911Z,21.58
2023-02-12T15:04:17.821Z,20.35
2023-02-12T15:06:51.772Z,24.38
2023-02-12T15:09:26.547Z,28.10
2023-02-12T15:11:58.666Z,20.92
2023-02-12T15:14:31.752Z,24.33
2023-02-12T15:17:22.614Z,22.48
2023-02-12T15:19:54.334Z,24.70
2023-02-12T15:22:36.623Z,22.52
2023-02-12T15:25:24.149Z,21.80
2023-02-12T15:27:52.855Z,23.45
2023-02-12T15:30:26.434Z,26.60
2023-02-12T15:32:56.550Z,26.75
2023-02-12T15:35:26.445Z,28.42
2023-02-12T15:37:54.653Z,26.58
2023-02-12T15:40:22.674Z,27.60
2023-02-12T15:42:54.700Z,28.80
2023-02-12T15:45:23.783Z,27.58
2023-02-12T15:48:10.280Z,27.35
2023-02-12T15:50:58.636Z,27.42
2023-02-12T15:53:27.249Z,28.63
2023-02-12T15:55:55.142Z,27.48
2023-02-12T15:58:30.487Z,38.38
2023-02-12T16:01:02.867Z,48.92
2023-02-12T16:03:31.984Z,55.65
2023-02-12T16:06:11.593Z,57.70
2023-02-12T16:08:39.585Z,54.22
2023-02-12T16:11:16.671Z,46.00
2023-02-12T16:13:49.130Z,45.13
2023-02-12T16:16:19.492Z,44.92
2023-02-12T16:18:47.292Z,48.67
2023-02-12T16:21:18.412Z,47.65
2023-02-12T16:23:47.392Z,46.53
2023-02-12T16:26:22.359Z,44.70
2023-02-12T16:28:51.434Z,45.40
2023-02-12T16:31:19.766Z,41.33
2023-02-12T16:33:53.229Z,43.83
2023-02-12T16:36:20.649Z,40.17
2023-02-12T16:38:49.558Z,41.70
2023-02-12T16:41:17.071Z,42.17
2023-02-12T16:43:44.745Z,40.13
2023-02-12T16:46:12.842Z,39.45
2023-02-12T16:48:41.932Z,38.15
2023-02-12T16:51:21.454Z,39.97
2023-02-12T16:53:50.189Z,40.45
2023-02-12T16:56:21.189Z,38.10
2023-02-12T16:58:59.715Z,39.70
2023-02-12T17:01:31.820Z,44.78
2023-02-12T17:04:00.303Z,48.80
2023-02-12T17:06:30.348Z,48.45
2023-02-12T17:08:58.485Z,49.33
2023-02-12T17:11:27.139Z,50.47
2023-02-12T17:13:55.755Z,49.63
2023-02-12T17:16:32.269Z,50.38
2023-02-12T17:19:01.056Z,46.78
2023-02-12T17:21:30.173Z,45.15
2023-02-12T17:23:57.874Z,49.38
2023-02-12T17:26:25.865Z,54.38
2023-02-12T17:28:53.536Z,69.53
2023-02-12T17:31:21.183Z,77.85
2023-02-12T17:33:49.084Z,88.03
2023-02-12T17:36:16.806Z,100.82
2023-02-12T17:38:45.131Z,91.25
2023-02-12T17:41:12.712Z,79.50
2023-02-12T17:43:40.347Z,84.32
2023-02-12T17:46:11.622Z,80.90
2023-02-12T17:48:40.491Z,73.05
2023-02-12T17:51:09.839Z,77.15
2023-02-12T17:53:37.410Z,79.68
2023-02-12T17:56:05.192Z,82.70
2023-02-12T17:58:32.737Z,96.05
2023-02-12T18:01:08.120Z,119.30
2023-02-12T18:06:03.590Z,112.38
2023-02-12T18:08:31.563Z,107.82
2023-02-12T18:10:59.099Z,146.43
2023-02-12T18:13:26.791Z,138.30
2023-02-12T18:15:54.253Z,135.88
2023-02-12T18:18:21.822Z,122.75
2023-02-12T18:20:49.341Z,111.25
2023-02-12T18:23:16.891Z,105.97
2023-02-12T18:25:45.195Z,100.97
2023-02-12T18:28:12.844Z,91.22
2023-02-12T18:30:43.282Z,103.75
2023-02-12T18:33:11.725Z,88.60
2023-02-12T18:35:41.735Z,85.13
2023-02-12T18:38:09.328Z,79.05
2023-02-12T18:40:39.956Z,78.00
2023-02-12T18:43:07.479Z,80.25
2023-02-12T18:45:34.935Z,74.68
2023-02-12T18:48:02.757Z,66.13
2023-02-12T18:50:30.489Z,61.08
2023-02-12T18:52:58.126Z,61.35
2023-02-12T18:55:25.614Z,63.97
2023-02-12T18:57:53.181Z,57.20
2023-02-12T19:00:20.897Z,55.83
2023-02-12T19:02:48.582Z,57.28
2023-02-12T19:05:16.191Z,53.58
2023-02-12T19:07:43.661Z,54.70
2023-02-12T19:10:11.468Z,52.65
2023-02-12T19:12:39.034Z,55.45
2023-02-12T19:15:08.765Z,53.50
2023-02-12T19:17:36.317Z,54.13
2023-02-12T19:20:03.810Z,51.83
2023-02-12T19:22:31.362Z,50.60
2023-02-12T19:24:58.970Z,54.25
2023-02-12T19:27:26.517Z,56.47
2023-02-12T19:29:54.092Z,65.45
2023-02-12T19:32:21.590Z,69.30
2023-02-12T19:34:49.209Z,65.60
2023-02-12T19:37:16.694Z,83.25
2023-02-12T19:39:44.428Z,96.47
2023-02-12T19:42:14.778Z,96.43
2023-02-12T19:44:42.346Z,99.90
2023-02-12T19:47:09.912Z,96.28
2023-02-12T19:49:38.299Z,97.45
2023-02-12T19:52:06.146Z,106.47
2023-02-12T19:54:33.843Z,112.20
2023-02-12T19:57:01.392Z,101.15
2023-02-12T19:59:29.205Z,95.18
2023-02-12T20:01:56.799Z,92.78
2023-02-12T20:04:24.832Z,88.65
2023-02-12T20:06:52.768Z,94.47
2023-02-12T20:09:20.757Z,107.35
2023-02-12T20:11:48.598Z,97.97
2023-02-12T20:14:16.202Z,88.30
2023-02-12T20:16:46.733Z,80.78
2023-02-12T20:19:19.048Z,78.55
2023-02-12T20:21:48.924Z,73.13
2023-02-12T20:24:16.705Z,76.90
2023-02-12T20:26:44.210Z,73.82
2023-02-12T20:29:11.692Z,65.35
2023-02-12T20:31:39.344Z,61.40
2023-02-12T20:34:08.621Z,60.97
2023-02-12T20:36:37.301Z,57.08
2023-02-12T20:39:05.612Z,56.60
2023-02-12T20:41:35.056Z,55.22
2023-02-12T20:44:02.574Z,52.72
2023-02-12T20:46:30.137Z,57.58
2023-02-12T20:48:58.428Z,60.55
2023-02-12T20:51:27.479Z,73.95
2023-02-12T20:53:55.629Z,72.75
2023-02-12T20:56:27.058Z,71.60
2023-02-12T20:58:54.946Z,70.97
2023-02-12T21:01:23.833Z,78.63
2023-02-12T21:03:52.339Z,75.63
2023-02-12T21:06:20.555Z,73.05
2023-02-12T21:08:48.086Z,67.75
2023-02-12T21:11:20.398Z,70.30
2023-02-12T21:13:59.004Z,71.70
2023-02-12T21:16:37.627Z,82.10
2023-02-12T21:19:05.374Z,68.80
2023-02-12T21:21:33.841Z,71.78
2023-02-12T21:24:01.832Z,76.43
2023-02-12T21:26:30.355Z,77.93
2023-02-12T21:28:58.693Z,78.88
2023-02-12T21:31:28.491Z,82.68
2023-02-12T21:33:56.754Z,79.68
2023-02-12T21:36:29.327Z,74.90
2023-02-12T21:38:56.940Z,74.32
2023-02-12T21:41:25.501Z,74.03
2023-02-12T21:44:13.353Z,71.20
2023-02-12T21:46:41.199Z,69.07
2023-02-12T21:49:08.994Z,70.68
2023-02-12T21:51:38.122Z,70.47
2023-02-12T21:54:07.891Z,73.03
2023-02-12T21:56:39.701Z,70.40
2023-02-12T21:59:08.685Z,70.15
2023-02-12T22:01:37.529Z,80.95
2023-02-12T22:04:06.685Z,80.93
2023-02-12T22:06:36.890Z,79.22
2023-02-12T22:09:07.818Z,80.82
2023-02-12T22:11:38.983Z,81.13
2023-02-12T22:14:07.261Z,78.82
2023-02-12T22:16:35.329Z,75.53
2023-02-12T22:19:03.229Z,71.70
2023-02-12T22:21:32.282Z,66.00
2023-02-12T22:24:01.585Z,62.15
2023-02-12T22:26:29.772Z,65.35
2023-02-12T22:28:58.561Z,63.70
2023-02-12T22:31:28.731Z,60.83
2023-02-12T22:33:58.100Z,57.08
2023-02-12T22:36:26.313Z,54.20
2023-02-12T22:38:54.580Z,63.33
2023-02-12T22:41:22.322Z,62.13
2023-02-12T22:43:50.272Z,60.03
2023-02-12T22:46:18.317Z,57.08
2023-02-12T22:48:46.050Z,57.25
2023-02-12T22:51:34.578Z,57.00
2023-02-12T22:54:02.023Z,56.78
2023-02-12T22:56:29.547Z,55.97
2023-02-12T22:58:57.918Z,60.70
2023-02-12T23:01:25.809Z,58.35
2023-02-12T23:03:53.400Z,57.90
2023-02-12T23:06:22.671Z,54.83
2023-02-12T23:08:51.094Z,61.15
2023-02-12T23:11:18.966Z,59.95
2023-02-12T23:13:46.784Z,60.78
2023-02-12T23:16:14.516Z,61.55
2023-02-12T23:18:42.035Z,61.67
2023-02-12T23:21:09.752Z,61.33
2023-02-12T23:23:37.182Z,68.63
2023-02-12T23:26:04.726Z,64.40
2023-02-12T23:28:32.256Z,64.28
2023-02-12T23:31:00.409Z,61.92
2023-02-12T23:33:28.058Z,60.42
2023-02-12T23:35:55.444Z,59.90
2023-02-12T23:38:22.856Z,55.42
2023-02-12T23:40:50.266Z,56.13
2023-02-12T23:43:17.588Z,53.92
2023-02-12T23:45:45.291Z,50.95
2023-02-12T23:48:13.104Z,50.47
2023-02-12T23:50:41.004Z,52.28
2023-02-12T23:53:10.227Z,50.20
2023-02-12T23:55:38.190Z,69.13
2023-02-12T23:58:06.036Z,53.20
